sensor_id;sensor_type;location;lat;lon;timestamp;pressure;altitude;pressure_sealevel;temperature;humidity
64362;BME280;50685;53.346;-6.296;2022-08-19T00:01:21;100988.69;;;14.77;61.93
64362;BME280;50685;53.346;-6.296;2022-08-19T00:03:46;100993.28;;;14.72;62.11
64362;BME280;50685;53.346;-6.296;2022-08-19T00:06:12;100991.53;;;14.71;62.30
64362;BME280;50685;53.346;-6.296;2022-08-19T00:08:37;100992.56;;;14.66;62.05
64362;BME280;50685;53.346;-6.296;2022-08-19T00:11:02;100998.03;;;14.59;62.69
64362;BME280;50685;53.346;-6.296;2022-08-19T00:13:28;100992.78;;;14.56;62.66
64362;BME280;50685;53.346;-6.296;2022-08-19T00:15:54;100993.78;;;14.52;62.81
64362;BME280;50685;53.346;-6.296;2022-08-19T00:18:19;100992.06;;;14.50;63.20
64362;BME280;50685;53.346;-6.296;2022-08-19T00:20:44;100995.75;;;14.45;63.26
64362;BME280;50685;53.346;-6.296;2022-08-19T00:23:10;101000.31;;;14.40;63.75
64362;BME280;50685;53.346;-6.296;2022-08-19T00:25:35;100999.53;;;14.37;64.31
64362;BME280;50685;53.346;-6.296;2022-08-19T00:28:01;100999.44;;;14.40;64.10
64362;BME280;50685;53.346;-6.296;2022-08-19T00:30:27;101002.16;;;14.38;64.37
64362;BME280;50685;53.346;-6.296;2022-08-19T00:32:52;101006.56;;;14.39;64.37
64362;BME280;50685;53.346;-6.296;2022-08-19T00:35:20;101001.22;;;14.39;64.73
64362;BME280;50685;53.346;-6.296;2022-08-19T00:37:46;101001.25;;;14.38;65.01
64362;BME280;50685;53.346;-6.296;2022-08-19T00:40:12;101001.34;;;14.35;65.41
64362;BME280;50685;53.346;-6.296;2022-08-19T00:42:37;101000.44;;;14.36;65.09
64362;BME280;50685;53.346;-6.296;2022-08-19T00:45:05;101009.41;;;14.32;65.86
64362;BME280;50685;53.346;-6.296;2022-08-19T00:47:33;101009.44;;;14.30;65.77
64362;BME280;50685;53.346;-6.296;2022-08-19T00:49:59;101010.47;;;14.26;65.90
64362;BME280;50685;53.346;-6.296;2022-08-19T00:52:26;101018.53;;;14.23;66.07
64362;BME280;50685;53.346;-6.296;2022-08-19T00:54:54;101007.94;;;14.18;66.12
64362;BME280;50685;53.346;-6.296;2022-08-19T00:57:20;101009.75;;;14.18;66.23
64362;BME280;50685;53.346;-6.296;2022-08-19T00:59:47;101005.28;;;14.20;66.12
64362;BME280;50685;53.346;-6.296;2022-08-19T01:02:17;100998.25;;;14.16;66.46
64362;BME280;50685;53.346;-6.296;2022-08-19T01:04:42;101000.09;;;14.13;66.45
64362;BME280;50685;53.346;-6.296;2022-08-19T01:07:08;100990.44;;;14.08;66.68
64362;BME280;50685;53.346;-6.296;2022-08-19T01:09:33;100993.16;;;14.06;67.19
64362;BME280;50685;53.346;-6.296;2022-08-19T01:11:58;101000.25;;;14.07;66.98
64362;BME280;50685;53.346;-6.296;2022-08-19T01:14:24;100994.09;;;14.04;67.14
64362;BME280;50685;53.346;-6.296;2022-08-19T01:16:49;101002.97;;;14.04;67.03
64362;BME280;50685;53.346;-6.296;2022-08-19T01:19:22;101010.09;;;14.04;67.10
64362;BME280;50685;53.346;-6.296;2022-08-19T01:21:52;101004.72;;;14.05;67.23
64362;BME280;50685;53.346;-6.296;2022-08-19T01:24:20;101007.38;;;14.05;67.33
64362;BME280;50685;53.346;-6.296;2022-08-19T01:26:47;101010.97;;;14.04;66.78
64362;BME280;50685;53.346;-6.296;2022-08-19T01:29:12;101006.59;;;14.02;67.14
64362;BME280;50685;53.346;-6.296;2022-08-19T01:31:39;101005.72;;;14.01;67.38
64362;BME280;50685;53.346;-6.296;2022-08-19T01:34:04;101010.19;;;13.99;67.40
64362;BME280;50685;53.346;-6.296;2022-08-19T01:36:35;101008.44;;;13.98;67.63
64362;BME280;50685;53.346;-6.296;2022-08-19T01:39:02;101005.78;;;13.98;67.31
64362;BME280;50685;53.346;-6.296;2022-08-19T01:41:28;101009.34;;;13.97;67.41
64362;BME280;50685;53.346;-6.296;2022-08-19T01:43:53;101010.25;;;13.96;67.66
64362;BME280;50685;53.346;-6.296;2022-08-19T01:46:18;101012.09;;;13.94;67.98
64362;BME280;50685;53.346;-6.296;2022-08-19T01:49:04;101002.31;;;13.94;67.80
64362;BME280;50685;53.346;-6.296;2022-08-19T01:51:30;101008.50;;;13.96;67.95
64362;BME280;50685;53.346;-6.296;2022-08-19T01:53:56;100999.53;;;13.99;67.84
64362;BME280;50685;53.346;-6.296;2022-08-19T01:56:22;101010.16;;;14.01;67.55
64362;BME280;50685;53.346;-6.296;2022-08-19T01:58:51;101012.88;;;13.99;67.75
64362;BME280;50685;53.346;-6.296;2022-08-19T02:01:18;101001.28;;;14.00;67.82
64362;BME280;50685;53.346;-6.296;2022-08-19T02:03:44;101009.25;;;14.02;67.83
64362;BME280;50685;53.346;-6.296;2022-08-19T02:06:09;101016.28;;;14.04;67.79
64362;BME280;50685;53.346;-6.296;2022-08-19T02:08:35;101017.97;;;14.08;67.58
64362;BME280;50685;53.346;-6.296;2022-08-19T02:11:01;101000.16;;;14.10;67.56
64362;BME280;50685;53.346;-6.296;2022-08-19T02:13:26;101010.88;;;14.09;67.34
64362;BME280;50685;53.346;-6.296;2022-08-19T02:15:52;101009.88;;;14.13;67.31
64362;BME280;50685;53.346;-6.296;2022-08-19T02:18:17;101021.44;;;14.13;67.64
64362;BME280;50685;53.346;-6.296;2022-08-19T02:20:43;101017.84;;;14.14;67.38
64362;BME280;50685;53.346;-6.296;2022-08-19T02:23:09;101018.66;;;14.17;67.34
64362;BME280;50685;53.346;-6.296;2022-08-19T02:25:35;101023.13;;;14.16;67.49
64362;BME280;50685;53.346;-6.296;2022-08-19T02:28:00;101022.38;;;14.11;67.79
64362;BME280;50685;53.346;-6.296;2022-08-19T02:30:26;101013.53;;;14.09;67.60
64362;BME280;50685;53.346;-6.296;2022-08-19T02:32:52;101003.06;;;14.00;67.91
64362;BME280;50685;53.346;-6.296;2022-08-19T02:35:17;101020.13;;;13.92;68.36
64362;BME280;50685;53.346;-6.296;2022-08-19T02:37:43;101006.88;;;13.89;68.58
64362;BME280;50685;53.346;-6.296;2022-08-19T02:40:28;101013.19;;;13.85;68.88
64362;BME280;50685;53.346;-6.296;2022-08-19T02:42:54;101003.44;;;13.84;69.23
64362;BME280;50685;53.346;-6.296;2022-08-19T02:45:19;101009.72;;;13.81;69.15
64362;BME280;50685;53.346;-6.296;2022-08-19T02:47:45;101005.31;;;13.80;69.38
64362;BME280;50685;53.346;-6.296;2022-08-19T02:50:10;100990.25;;;13.78;69.27
64362;BME280;50685;53.346;-6.296;2022-08-19T02:52:37;100995.59;;;13.76;69.45
64362;BME280;50685;53.346;-6.296;2022-08-19T02:55:03;100987.66;;;13.75;69.59
64362;BME280;50685;53.346;-6.296;2022-08-19T02:57:29;100995.59;;;13.76;69.74
64362;BME280;50685;53.346;-6.296;2022-08-19T02:59:56;100987.66;;;13.75;69.80
64362;BME280;50685;53.346;-6.296;2022-08-19T03:02:21;100992.13;;;13.74;69.67
64362;BME280;50685;53.346;-6.296;2022-08-19T03:04:46;100991.22;;;13.74;69.88
64362;BME280;50685;53.346;-6.296;2022-08-19T03:07:15;101001.94;;;13.72;69.89
64362;BME280;50685;53.346;-6.296;2022-08-19T03:09:40;100997.50;;;13.71;69.99
64362;BME280;50685;53.346;-6.296;2022-08-19T03:12:08;100996.69;;;13.68;70.21
64362;BME280;50685;53.346;-6.296;2022-08-19T03:14:34;101008.25;;;13.66;70.06
64362;BME280;50685;53.346;-6.296;2022-08-19T03:16:59;101008.34;;;13.63;70.32
64362;BME280;50685;53.346;-6.296;2022-08-19T03:19:25;100993.34;;;13.59;70.22
64362;BME280;50685;53.346;-6.296;2022-08-19T03:21:50;101009.34;;;13.59;70.49
64362;BME280;50685;53.346;-6.296;2022-08-19T03:24:17;101004.06;;;13.56;70.71
64362;BME280;50685;53.346;-6.296;2022-08-19T03:26:45;101006.81;;;13.53;70.86
64362;BME280;50685;53.346;-6.296;2022-08-19T03:29:10;101006.81;;;13.52;70.71
64362;BME280;50685;53.346;-6.296;2022-08-19T03:31:36;101008.56;;;13.53;70.70
64362;BME280;50685;53.346;-6.296;2022-08-19T03:34:02;101014.81;;;13.52;70.53
64362;BME280;50685;53.346;-6.296;2022-08-19T03:36:27;101015.72;;;13.50;70.84
64362;BME280;50685;53.346;-6.296;2022-08-19T03:38:54;101013.97;;;13.49;70.70
64362;BME280;50685;53.346;-6.296;2022-08-19T03:41:22;101016.66;;;13.48;70.65
64362;BME280;50685;53.346;-6.296;2022-08-19T03:43:48;101015.84;;;13.46;70.75
64362;BME280;50685;53.346;-6.296;2022-08-19T03:46:17;101007.03;;;13.42;70.95
64362;BME280;50685;53.346;-6.296;2022-08-19T03:48:46;100997.28;;;13.41;71.22
64362;BME280;50685;53.346;-6.296;2022-08-19T03:51:15;100997.31;;;13.40;71.09
64362;BME280;50685;53.346;-6.296;2022-08-19T03:53:41;100996.41;;;13.39;71.41
64362;BME280;50685;53.346;-6.296;2022-08-19T03:56:08;100999.03;;;13.41;71.33
64362;BME280;50685;53.346;-6.296;2022-08-19T03:58:34;101000.88;;;13.39;71.38
64362;BME280;50685;53.346;-6.296;2022-08-19T04:00:59;100996.38;;;13.42;71.42
64362;BME280;50685;53.346;-6.296;2022-08-19T04:03:25;100998.03;;;13.46;71.45
64362;BME280;50685;53.346;-6.296;2022-08-19T04:05:51;100997.16;;;13.47;71.50
64362;BME280;50685;53.346;-6.296;2022-08-19T04:08:18;100990.09;;;13.45;71.50
64362;BME280;50685;53.346;-6.296;2022-08-19T04:10:45;100998.13;;;13.43;71.73
64362;BME280;50685;53.346;-6.296;2022-08-19T04:13:10;100998.13;;;13.43;71.55
64362;BME280;50685;53.346;-6.296;2022-08-19T04:15:43;100999.94;;;13.41;71.67
64362;BME280;50685;53.346;-6.296;2022-08-19T04:18:11;101008.75;;;13.45;71.54
64362;BME280;50685;53.346;-6.296;2022-08-19T04:20:43;100996.38;;;13.41;71.78
64362;BME280;50685;53.346;-6.296;2022-08-19T04:23:11;101008.88;;;13.39;71.76
64362;BME280;50685;53.346;-6.296;2022-08-19T04:25:41;101006.22;;;13.39;71.73
64362;BME280;50685;53.346;-6.296;2022-08-19T04:28:07;100993.78;;;13.38;71.70
64362;BME280;50685;53.346;-6.296;2022-08-19T04:30:47;101000.00;;;13.38;71.82
64362;BME280;50685;53.346;-6.296;2022-08-19T04:33:14;101001.78;;;13.38;71.34
64362;BME280;50685;53.346;-6.296;2022-08-19T04:35:42;101006.31;;;13.32;71.81
64362;BME280;50685;53.346;-6.296;2022-08-19T04:38:08;101008.06;;;13.32;72.00
64362;BME280;50685;53.346;-6.296;2022-08-19T04:40:34;100998.31;;;13.31;72.01
64362;BME280;50685;53.346;-6.296;2022-08-19T04:43:18;101000.09;;;13.32;71.83
64362;BME280;50685;53.346;-6.296;2022-08-19T04:45:44;100991.28;;;13.30;71.97
64362;BME280;50685;53.346;-6.296;2022-08-19T04:48:10;101007.25;;;13.28;72.25
64362;BME280;50685;53.346;-6.296;2022-08-19T04:50:36;101003.78;;;13.25;72.32
64362;BME280;50685;53.346;-6.296;2022-08-19T04:53:01;100998.50;;;13.23;72.24
64362;BME280;50685;53.346;-6.296;2022-08-19T04:55:26;101000.28;;;13.23;72.27
64362;BME280;50685;53.346;-6.296;2022-08-19T04:57:52;101007.38;;;13.24;72.19
64362;BME280;50685;53.346;-6.296;2022-08-19T05:00:17;101005.63;;;13.23;72.11
64362;BME280;50685;53.346;-6.296;2022-08-19T05:02:43;101008.22;;;13.26;71.96
64362;BME280;50685;53.346;-6.296;2022-08-19T05:05:08;100998.41;;;13.28;71.84
64362;BME280;50685;53.346;-6.296;2022-08-19T05:07:34;101007.25;;;13.28;71.57
64362;BME280;50685;53.346;-6.296;2022-08-19T05:09:59;101021.44;;;13.30;71.62
64362;BME280;50685;53.346;-6.296;2022-08-19T05:12:25;101016.06;;;13.32;71.57
64362;BME280;50685;53.346;-6.296;2022-08-19T05:14:51;101005.38;;;13.35;71.24
64362;BME280;50685;53.346;-6.296;2022-08-19T05:17:17;101016.88;;;13.37;71.13
64362;BME280;50685;53.346;-6.296;2022-08-19T05:19:42;101007.06;;;13.39;71.43
64362;BME280;50685;53.346;-6.296;2022-08-19T05:22:26;101031.97;;;13.38;71.16
64362;BME280;50685;53.346;-6.296;2022-08-19T05:24:59;101012.47;;;13.36;71.10
64362;BME280;50685;53.346;-6.296;2022-08-19T05:27:25;101031.09;;;13.36;70.96
64362;BME280;50685;53.346;-6.296;2022-08-19T05:29:51;101019.59;;;13.34;71.27
64362;BME280;50685;53.346;-6.296;2022-08-19T05:32:16;101031.19;;;13.31;71.57
64362;BME280;50685;53.346;-6.296;2022-08-19T05:34:41;101036.56;;;13.30;71.53
64362;BME280;50685;53.346;-6.296;2022-08-19T05:37:07;101030.41;;;13.25;71.97
64362;BME280;50685;53.346;-6.296;2022-08-19T05:39:34;101026.97;;;13.21;72.18
64362;BME280;50685;53.346;-6.296;2022-08-19T05:42:00;101025.22;;;13.18;72.37
64362;BME280;50685;53.346;-6.296;2022-08-19T05:44:27;101035.03;;;13.16;72.49
64362;BME280;50685;53.346;-6.296;2022-08-19T05:46:55;101043.06;;;13.13;72.52
64362;BME280;50685;53.346;-6.296;2022-08-19T05:49:21;101042.22;;;13.13;72.76
64362;BME280;50685;53.346;-6.296;2022-08-19T05:51:47;101037.75;;;13.13;72.64
64362;BME280;50685;53.346;-6.296;2022-08-19T05:54:12;101043.03;;;13.16;72.82
64362;BME280;50685;53.346;-6.296;2022-08-19T05:56:38;101046.53;;;13.20;72.69
64362;BME280;50685;53.346;-6.296;2022-08-19T05:59:05;101046.44;;;13.23;72.43
64362;BME280;50685;53.346;-6.296;2022-08-19T06:01:34;101055.25;;;13.27;72.21
64362;BME280;50685;53.346;-6.296;2022-08-19T06:03:59;101062.25;;;13.31;72.08
64362;BME280;50685;53.346;-6.296;2022-08-19T06:06:25;101059.53;;;13.34;72.03
64362;BME280;50685;53.346;-6.296;2022-08-19T06:08:50;101070.16;;;13.37;71.84
64362;BME280;50685;53.346;-6.296;2022-08-19T06:11:31;101067.50;;;13.37;72.02
64362;BME280;50685;53.346;-6.296;2022-08-19T06:13:59;101066.59;;;13.40;71.80
64362;BME280;50685;53.346;-6.296;2022-08-19T06:16:25;101061.19;;;13.43;71.70
64362;BME280;50685;53.346;-6.296;2022-08-19T06:18:52;101069.91;;;13.51;71.59
64362;BME280;50685;53.346;-6.296;2022-08-19T06:21:21;101077.72;;;13.59;71.43
64362;BME280;50685;53.346;-6.296;2022-08-19T06:23:47;101082.13;;;13.61;71.28
64362;BME280;50685;53.346;-6.296;2022-08-19T06:26:13;101083.00;;;13.62;71.22
64362;BME280;50685;53.346;-6.296;2022-08-19T06:28:38;101091.00;;;13.62;71.03
64362;BME280;50685;53.346;-6.296;2022-08-19T06:31:08;101099.91;;;13.61;70.96
64362;BME280;50685;53.346;-6.296;2022-08-19T06:33:33;101107.03;;;13.59;71.14
64362;BME280;50685;53.346;-6.296;2022-08-19T06:35:59;101099.94;;;13.58;71.46
64362;BME280;50685;53.346;-6.296;2022-08-19T06:38:24;101097.31;;;13.56;71.55
64362;BME280;50685;53.346;-6.296;2022-08-19T06:40:50;101100.84;;;13.57;71.63
64362;BME280;50685;53.346;-6.296;2022-08-19T06:43:15;101101.63;;;13.63;71.57
64362;BME280;50685;53.346;-6.296;2022-08-19T06:45:41;101096.84;;;13.79;71.29
64362;BME280;50685;53.346;-6.296;2022-08-19T06:48:06;101103.56;;;13.97;70.67
64362;BME280;50685;53.346;-6.296;2022-08-19T06:50:32;101108.41;;;14.21;69.92
64362;BME280;50685;53.346;-6.296;2022-08-19T06:53:16;101105.25;;;14.41;68.91
64362;BME280;50685;53.346;-6.296;2022-08-19T06:55:43;101094.22;;;14.56;68.28
64362;BME280;50685;53.346;-6.296;2022-08-19T06:58:08;101097.44;;;14.71;67.56
64362;BME280;50685;53.346;-6.296;2022-08-19T07:00:34;101099.78;;;14.85;67.15
64362;BME280;50685;53.346;-6.296;2022-08-19T07:02:59;101097.47;;;15.04;66.46
64362;BME280;50685;53.346;-6.296;2022-08-19T07:05:25;101096.19;;;15.19;66.13
64362;BME280;50685;53.346;-6.296;2022-08-19T07:07:50;101077.41;;;15.22;65.37
64362;BME280;50685;53.346;-6.296;2022-08-19T07:10:16;101105.56;;;15.35;64.71
64362;BME280;50685;53.346;-6.296;2022-08-19T07:12:41;101108.72;;;15.50;64.36
64362;BME280;50685;53.346;-6.296;2022-08-19T07:15:07;101110.03;;;15.66;64.21
64362;BME280;50685;53.346;-6.296;2022-08-19T07:17:33;101114.81;;;15.86;63.48
64362;BME280;50685;53.346;-6.296;2022-08-19T07:20:02;101113.66;;;15.95;63.11
64362;BME280;50685;53.346;-6.296;2022-08-19T07:22:28;101118.38;;;15.87;63.15
64362;BME280;50685;53.346;-6.296;2022-08-19T07:24:53;101117.13;;;15.67;63.26
64362;BME280;50685;53.346;-6.296;2022-08-19T07:27:18;101119.47;;;15.47;64.22
64362;BME280;50685;53.346;-6.296;2022-08-19T07:29:44;101122.34;;;15.40;64.38
64362;BME280;50685;53.346;-6.296;2022-08-19T07:32:10;101117.59;;;15.50;64.19
64362;BME280;50685;53.346;-6.296;2022-08-19T07:34:36;101127.22;;;15.57;64.44
64362;BME280;50685;53.346;-6.296;2022-08-19T07:37:09;101117.94;;;15.69;63.32
64362;BME280;50685;53.346;-6.296;2022-08-19T07:39:35;101112.69;;;15.66;63.70
64362;BME280;50685;53.346;-6.296;2022-08-19T07:42:02;101126.47;;;15.52;64.10
64362;BME280;50685;53.346;-6.296;2022-08-19T07:44:28;101129.41;;;15.74;63.77
64362;BME280;50685;53.346;-6.296;2022-08-19T07:46:55;101116.16;;;16.01;63.28
64362;BME280;50685;53.346;-6.296;2022-08-19T07:49:21;101121.09;;;16.15;62.50
64362;BME280;50685;53.346;-6.296;2022-08-19T07:51:49;101120.84;;;16.23;62.28
64362;BME280;50685;53.346;-6.296;2022-08-19T07:54:15;101134.88;;;16.31;61.83
64362;BME280;50685;53.346;-6.296;2022-08-19T07:56:41;101138.00;;;16.44;61.02
64362;BME280;50685;53.346;-6.296;2022-08-19T07:59:06;101131.72;;;16.74;60.61
64362;BME280;50685;53.346;-6.296;2022-08-19T08:01:34;101136.34;;;16.97;59.58
64362;BME280;50685;53.346;-6.296;2022-08-19T08:03:59;101130.59;;;17.08;59.29
64362;BME280;50685;53.346;-6.296;2022-08-19T08:06:43;101140.69;;;17.26;58.48
64362;BME280;50685;53.346;-6.296;2022-08-19T08:09:32;101146.91;;;17.52;57.86
64362;BME280;50685;53.346;-6.296;2022-08-19T08:11:59;101152.50;;;17.71;57.30
64362;BME280;50685;53.346;-6.296;2022-08-19T08:14:28;101144.53;;;17.93;56.36
64362;BME280;50685;53.346;-6.296;2022-08-19T08:16:54;101152.00;;;18.09;55.94
64362;BME280;50685;53.346;-6.296;2022-08-19T08:19:20;101131.00;;;18.20;55.41
64362;BME280;50685;53.346;-6.296;2022-08-19T08:21:46;101149.16;;;18.36;55.01
64362;BME280;50685;53.346;-6.296;2022-08-19T08:24:12;101153.16;;;18.25;54.78
64362;BME280;50685;53.346;-6.296;2022-08-19T08:26:37;101144.81;;;18.33;54.60
64362;BME280;50685;53.346;-6.296;2022-08-19T08:29:03;101137.81;;;18.29;54.58
64362;BME280;50685;53.346;-6.296;2022-08-19T08:31:28;101143.28;;;18.50;54.24
64362;BME280;50685;53.346;-6.296;2022-08-19T08:33:54;101143.75;;;18.82;53.76
64362;BME280;50685;53.346;-6.296;2022-08-19T08:36:19;101140.91;;;18.85;53.24
64362;BME280;50685;53.346;-6.296;2022-08-19T08:38:45;101150.88;;;18.60;53.61
64362;BME280;50685;53.346;-6.296;2022-08-19T08:43:44;101146.38;;;18.39;54.09
64362;BME280;50685;53.346;-6.296;2022-08-19T08:48:56;101144.81;;;19.00;52.35
64362;BME280;50685;53.346;-6.296;2022-08-19T08:51:33;101141.38;;;19.17;51.26
64362;BME280;50685;53.346;-6.296;2022-08-19T08:54:00;101145.38;;;19.29;50.79
64362;BME280;50685;53.346;-6.296;2022-08-19T08:56:26;101137.63;;;19.21;50.67
64362;BME280;50685;53.346;-6.296;2022-08-19T08:58:55;101138.03;;;19.32;50.74
64362;BME280;50685;53.346;-6.296;2022-08-19T09:01:23;101125.72;;;19.06;50.59
64362;BME280;50685;53.346;-6.296;2022-08-19T09:03:48;101141.06;;;19.04;50.70
64362;BME280;50685;53.346;-6.296;2022-08-19T09:09:05;101114.69;;;19.53;49.86
64362;BME280;50685;53.346;-6.296;2022-08-19T09:16:45;101152.28;;;19.34;50.88
64362;BME280;50685;53.346;-6.296;2022-08-19T09:19:10;101142.91;;;19.64;50.32
64362;BME280;50685;53.346;-6.296;2022-08-19T09:21:35;101151.53;;;19.72;50.20
64362;BME280;50685;53.346;-6.296;2022-08-19T09:24:02;101154.28;;;20.10;49.58
64362;BME280;50685;53.346;-6.296;2022-08-19T09:26:27;101144.22;;;20.52;48.28
64362;BME280;50685;53.346;-6.296;2022-08-19T09:28:52;101130.13;;;20.83;46.68
64362;BME280;50685;53.346;-6.296;2022-08-19T09:31:22;101138.94;;;21.05;46.00
64362;BME280;50685;53.346;-6.296;2022-08-19T09:33:48;101152.19;;;21.09;46.11
64362;BME280;50685;53.346;-6.296;2022-08-19T09:36:15;101145.06;;;20.72;47.31
64362;BME280;50685;53.346;-6.296;2022-08-19T09:38:40;101123.91;;;20.81;46.94
64362;BME280;50685;53.346;-6.296;2022-08-19T09:41:13;101126.69;;;20.80;46.27
64362;BME280;50685;53.346;-6.296;2022-08-19T09:43:39;101129.56;;;20.94;46.13
64362;BME280;50685;53.346;-6.296;2022-08-19T09:46:05;101113.00;;;21.02;45.23
64362;BME280;50685;53.346;-6.296;2022-08-19T09:48:49;101128.31;;;21.19;44.78
64362;BME280;50685;53.346;-6.296;2022-08-19T09:51:17;101137.00;;;20.72;45.29
64362;BME280;50685;53.346;-6.296;2022-08-19T09:53:43;101104.13;;;20.27;46.18
64362;BME280;50685;53.346;-6.296;2022-08-19T09:56:09;101136.59;;;19.85;47.31
64362;BME280;50685;53.346;-6.296;2022-08-19T09:58:35;101127.47;;;19.48;48.49
64362;BME280;50685;53.346;-6.296;2022-08-19T10:01:02;101119.56;;;19.04;49.39
64362;BME280;50685;53.346;-6.296;2022-08-19T10:03:28;101124.50;;;18.70;50.77
64362;BME280;50685;53.346;-6.296;2022-08-19T10:05:55;101132.31;;;18.54;51.37
64362;BME280;50685;53.346;-6.296;2022-08-19T10:08:27;101130.56;;;18.53;51.88
64362;BME280;50685;53.346;-6.296;2022-08-19T10:10:53;101138.34;;;18.37;51.70
64362;BME280;50685;53.346;-6.296;2022-08-19T10:13:22;101134.72;;;18.16;52.32
64362;BME280;50685;53.346;-6.296;2022-08-19T10:15:53;101131.94;;;17.95;53.11
64362;BME280;50685;53.346;-6.296;2022-08-19T10:18:20;101127.84;;;18.09;53.39
64362;BME280;50685;53.346;-6.296;2022-08-19T10:20:46;101135.47;;;18.20;53.10
64362;BME280;50685;53.346;-6.296;2022-08-19T10:23:12;101130.00;;;18.23;53.08
64362;BME280;50685;53.346;-6.296;2022-08-19T10:25:38;101137.81;;;18.29;52.93
64362;BME280;50685;53.346;-6.296;2022-08-19T10:28:03;101133.63;;;18.22;53.27
64362;BME280;50685;53.346;-6.296;2022-08-19T10:30:30;101127.16;;;18.04;53.94
64362;BME280;50685;53.346;-6.296;2022-08-19T10:32:56;101149.84;;;17.95;54.68
64362;BME280;50685;53.346;-6.296;2022-08-19T10:35:22;101136.75;;;17.86;55.33
64362;BME280;50685;53.346;-6.296;2022-08-19T10:37:47;101141.94;;;17.90;54.98
64362;BME280;50685;53.346;-6.296;2022-08-19T10:40:12;101143.41;;;17.99;55.06
64362;BME280;50685;53.346;-6.296;2022-08-19T10:42:38;101141.25;;;18.09;54.84
64362;BME280;50685;53.346;-6.296;2022-08-19T10:45:03;101152.72;;;18.14;53.55
64362;BME280;50685;53.346;-6.296;2022-08-19T10:47:30;101140.56;;;18.04;52.35
64362;BME280;50685;53.346;-6.296;2022-08-19T10:49:56;101134.81;;;17.89;52.21
64362;BME280;50685;53.346;-6.296;2022-08-19T10:52:40;101144.50;;;17.95;52.61
64362;BME280;50685;53.346;-6.296;2022-08-19T10:55:06;101148.78;;;17.99;52.38
64362;BME280;50685;53.346;-6.296;2022-08-19T10:57:51;101155.50;;;18.11;52.16
64362;BME280;50685;53.346;-6.296;2022-08-19T11:00:18;101148.16;;;18.16;52.01
64362;BME280;50685;53.346;-6.296;2022-08-19T11:02:43;101157.88;;;18.19;51.95
64362;BME280;50685;53.346;-6.296;2022-08-19T11:05:08;101157.59;;;18.26;52.32
64362;BME280;50685;53.346;-6.296;2022-08-19T11:07:40;101148.91;;;18.20;52.65
64362;BME280;50685;53.346;-6.296;2022-08-19T11:10:05;101153.50;;;18.16;52.53
64362;BME280;50685;53.346;-6.296;2022-08-19T11:12:31;101156.97;;;18.20;52.42
64362;BME280;50685;53.346;-6.296;2022-08-19T11:14:57;101128.00;;;18.50;51.25
64362;BME280;50685;53.346;-6.296;2022-08-19T11:17:23;101142.13;;;18.77;50.69
64362;BME280;50685;53.346;-6.296;2022-08-19T11:19:48;101144.28;;;19.33;49.79
64362;BME280;50685;53.346;-6.296;2022-08-19T11:22:14;101135.44;;;19.70;48.90
64362;BME280;50685;53.346;-6.296;2022-08-19T11:24:39;101138.72;;;19.98;48.58
64362;BME280;50685;53.346;-6.296;2022-08-19T11:27:08;101142.25;;;19.98;48.19
64362;BME280;50685;53.346;-6.296;2022-08-19T11:29:39;101132.84;;;19.69;47.81
64362;BME280;50685;53.346;-6.296;2022-08-19T11:32:05;101138.34;;;19.66;48.68
64362;BME280;50685;53.346;-6.296;2022-08-19T11:34:31;101128.53;;;19.44;48.75
64362;BME280;50685;53.346;-6.296;2022-08-19T11:36:57;101138.78;;;19.36;48.89
64362;BME280;50685;53.346;-6.296;2022-08-19T11:39:23;101139.06;;;19.30;49.04
64362;BME280;50685;53.346;-6.296;2022-08-19T11:41:50;101131.38;;;19.41;49.15
64362;BME280;50685;53.346;-6.296;2022-08-19T11:44:15;101134.78;;;19.65;49.06
64362;BME280;50685;53.346;-6.296;2022-08-19T11:46:41;101126.19;;;19.76;47.71
64362;BME280;50685;53.346;-6.296;2022-08-19T11:49:10;101125.91;;;19.84;47.52
64362;BME280;50685;53.346;-6.296;2022-08-19T11:51:36;101115.63;;;19.92;47.74
64362;BME280;50685;53.346;-6.296;2022-08-19T11:54:03;101136.22;;;19.93;47.68
64362;BME280;50685;53.346;-6.296;2022-08-19T11:56:29;101117.09;;;20.18;47.18
64362;BME280;50685;53.346;-6.296;2022-08-19T11:58:54;101123.41;;;20.36;46.55
64362;BME280;50685;53.346;-6.296;2022-08-19T12:01:22;101105.13;;;20.43;46.31
64362;BME280;50685;53.346;-6.296;2022-08-19T12:03:48;101128.88;;;20.35;46.20
64362;BME280;50685;53.346;-6.296;2022-08-19T12:06:15;101132.75;;;20.29;46.19
64362;BME280;50685;53.346;-6.296;2022-08-19T12:08:42;101135.66;;;20.25;46.46
64362;BME280;50685;53.346;-6.296;2022-08-19T12:11:08;101129.25;;;20.08;46.66
64362;BME280;50685;53.346;-6.296;2022-08-19T12:13:34;101133.59;;;20.30;46.40
64362;BME280;50685;53.346;-6.296;2022-08-19T12:16:00;101123.25;;;20.59;46.09
64362;BME280;50685;53.346;-6.296;2022-08-19T12:18:26;101123.13;;;20.79;45.45
64362;BME280;50685;53.346;-6.296;2022-08-19T12:20:52;101111.25;;;20.83;45.20
64362;BME280;50685;53.346;-6.296;2022-08-19T12:23:19;101125.06;;;21.30;44.40
64362;BME280;50685;53.346;-6.296;2022-08-19T12:25:46;101108.69;;;20.98;44.23
64362;BME280;50685;53.346;-6.296;2022-08-19T12:28:15;101123.28;;;20.57;44.96
64362;BME280;50685;53.346;-6.296;2022-08-19T12:30:40;101107.78;;;20.26;44.94
64362;BME280;50685;53.346;-6.296;2022-08-19T12:33:06;101117.75;;;20.23;45.18
64362;BME280;50685;53.346;-6.296;2022-08-19T12:38:16;101126.03;;;20.19;45.14
64362;BME280;50685;53.346;-6.296;2022-08-19T12:40:44;101133.03;;;20.04;45.30
64362;BME280;50685;53.346;-6.296;2022-08-19T12:43:11;101126.19;;;19.97;45.53
64362;BME280;50685;53.346;-6.296;2022-08-19T12:45:37;101129.25;;;20.08;45.47
64362;BME280;50685;53.346;-6.296;2022-08-19T12:48:02;101128.16;;;20.12;45.48
64362;BME280;50685;53.346;-6.296;2022-08-19T12:50:28;101134.03;;;20.20;45.31
64362;BME280;50685;53.346;-6.296;2022-08-19T12:52:53;101128.09;;;20.14;45.31
64362;BME280;50685;53.346;-6.296;2022-08-19T12:55:18;101124.22;;;20.00;45.35